createdAt,value
2019-03-09T00:00:56.195Z,3.20
2019-03-09T00:03:24.469Z,2.85
2019-03-09T00:05:52.819Z,3.33
2019-03-09T00:08:21.076Z,3.30
2019-03-09T00:10:50.012Z,3.15
2019-03-09T00:13:18.344Z,2.90
2019-03-09T00:15:46.703Z,3.37
2019-03-09T00:18:17.871Z,3.40
2019-03-09T00:20:46.438Z,2.85
2019-03-09T00:23:22.792Z,3.22
2019-03-09T00:25:52.971Z,3.22
2019-03-09T00:28:25.671Z,3.00
2019-03-09T00:30:55.709Z,3.33
2019-03-09T00:33:23.975Z,3.75
2019-03-09T00:35:52.526Z,3.37
2019-03-09T00:38:21.206Z,3.22
2019-03-09T00:40:49.552Z,3.47
2019-03-09T00:43:17.803Z,3.70
2019-03-09T00:45:46.098Z,3.20
2019-03-09T00:48:14.628Z,3.47
2019-03-09T00:50:42.887Z,3.50
2019-03-09T00:53:11.253Z,3.95
2019-03-09T00:55:41.159Z,4.33
2019-03-09T00:58:09.430Z,4.00
2019-03-09T01:00:37.712Z,4.12
2019-03-09T01:03:08.918Z,4.28
2019-03-09T01:05:37.181Z,4.75
2019-03-09T01:08:05.453Z,4.25
2019-03-09T01:10:33.720Z,4.17
2019-03-09T01:13:08.289Z,4.35
2019-03-09T01:15:36.626Z,3.65
2019-03-09T01:18:04.903Z,3.87
2019-03-09T01:20:33.956Z,3.70
2019-03-09T01:23:02.235Z,3.80
2019-03-09T01:25:30.493Z,3.80
2019-03-09T01:27:58.783Z,4.05
2019-03-09T01:30:27.182Z,3.47
2019-03-09T01:32:55.745Z,3.27
2019-03-09T01:35:24.004Z,3.30
2019-03-09T01:37:52.277Z,2.65
2019-03-09T01:40:20.539Z,2.30
2019-03-09T01:42:48.820Z,2.08
2019-03-09T01:45:17.093Z,2.20
2019-03-09T01:47:46.103Z,2.47
2019-03-09T01:50:14.362Z,2.55
2019-03-09T01:52:42.726Z,2.90
2019-03-09T01:55:13.978Z,2.52
2019-03-09T01:57:42.259Z,2.45
2019-03-09T02:00:18.467Z,2.67
2019-03-09T02:02:46.753Z,2.92
2019-03-09T02:05:15.358Z,2.90
2019-03-09T02:07:43.641Z,3.20
2019-03-09T02:10:15.603Z,3.37
2019-03-09T02:12:43.882Z,2.70
2019-03-09T02:15:16.006Z,2.12
2019-03-09T02:17:44.694Z,2.35
2019-03-09T02:20:15.811Z,2.58
2019-03-09T02:22:44.347Z,2.45
2019-03-09T02:25:13.109Z,2.20
2019-03-09T02:27:41.388Z,3.00
2019-03-09T02:30:17.887Z,2.67
2019-03-09T02:32:46.172Z,2.62
2019-03-09T02:35:17.947Z,2.60
2019-03-09T02:37:46.219Z,2.92
2019-03-09T02:40:16.121Z,3.02
2019-03-09T02:42:44.405Z,2.60
2019-03-09T02:45:19.101Z,2.20
2019-03-09T02:50:16.213Z,2.25
2019-03-09T02:52:44.565Z,2.95
2019-03-09T02:55:13.626Z,2.70
2019-03-09T02:57:41.902Z,2.80
2019-03-09T03:00:17.932Z,2.75
2019-03-09T03:02:48.132Z,2.83
2019-03-09T03:05:16.403Z,2.62
2019-03-09T03:07:44.679Z,2.60
2019-03-09T03:10:12.947Z,2.62
2019-03-09T03:12:56.312Z,2.58
2019-03-09T03:15:30.769Z,2.90
2019-03-09T03:17:59.112Z,2.60
2019-03-09T03:20:27.686Z,2.67
2019-03-09T03:22:56.253Z,2.67
2019-03-09T03:25:24.782Z,2.45
2019-03-09T03:27:53.465Z,2.70
2019-03-09T03:30:21.721Z,2.77
2019-03-09T03:32:51.017Z,2.30
2019-03-09T03:35:19.273Z,2.35
2019-03-09T03:37:53.558Z,2.37
2019-03-09T03:40:21.916Z,2.62
2019-03-09T03:42:50.229Z,2.30
2019-03-09T03:45:18.526Z,2.20
2019-03-09T03:47:46.855Z,2.12
2019-03-09T03:50:15.218Z,2.08
2019-03-09T03:52:43.561Z,2.42
2019-03-09T03:55:11.897Z,2.40
2019-03-09T03:57:40.251Z,2.10
2019-03-09T04:00:15.886Z,2.50
2019-03-09T04:02:44.152Z,2.10
2019-03-09T04:05:12.764Z,2.00
2019-03-09T04:07:41.521Z,2.00
2019-03-09T04:10:11.702Z,2.05
2019-03-09T04:12:40.219Z,2.05
2019-03-09T04:15:08.486Z,1.90
2019-03-09T04:17:36.763Z,1.85
2019-03-09T04:20:07.302Z,1.75
2019-03-09T04:22:35.644Z,1.77
2019-03-09T04:25:05.138Z,2.10
2019-03-09T04:27:33.405Z,2.05
2019-03-09T04:30:02.087Z,1.92
2019-03-09T04:32:30.463Z,1.72
2019-03-09T04:34:58.734Z,1.92
2019-03-09T04:37:27.334Z,1.90
2019-03-09T04:39:56.173Z,1.98
2019-03-09T04:42:30.611Z,1.50
2019-03-09T04:44:58.970Z,1.50
2019-03-09T04:47:27.239Z,1.90
2019-03-09T04:49:55.809Z,2.15
2019-03-09T04:52:24.131Z,2.08
2019-03-09T04:54:52.420Z,2.22
2019-03-09T04:57:20.749Z,2.17
2019-03-09T04:59:49.115Z,2.10
2019-03-09T05:02:20.135Z,2.35
2019-03-09T05:04:48.666Z,2.12
2019-03-09T05:07:20.383Z,2.22
2019-03-09T05:09:54.802Z,2.17
2019-03-09T05:12:23.317Z,2.10
2019-03-09T05:14:51.838Z,2.25
2019-03-09T05:17:20.105Z,1.75
2019-03-09T05:19:48.410Z,1.80
2019-03-09T05:22:22.875Z,2.40
2019-03-09T05:24:51.421Z,2.20
2019-03-09T05:27:19.680Z,2.10
2019-03-09T05:29:50.985Z,2.37
2019-03-09T05:32:19.248Z,1.90
2019-03-09T05:34:50.474Z,2.20
2019-03-09T05:37:18.740Z,2.08
2019-03-09T05:39:47.014Z,2.00
2019-03-09T05:42:15.538Z,2.10
2019-03-09T05:44:47.030Z,2.50
2019-03-09T05:47:15.290Z,2.25
2019-03-09T05:49:43.548Z,2.12
2019-03-09T05:52:24.399Z,1.80
2019-03-09T05:54:52.673Z,2.20
2019-03-09T05:57:21.100Z,2.33
2019-03-09T05:59:49.622Z,2.42
2019-03-09T06:02:17.902Z,2.20
2019-03-09T06:04:46.238Z,2.77
2019-03-09T06:07:14.511Z,2.62
2019-03-09T06:09:42.767Z,2.80
2019-03-09T06:12:11.047Z,2.15
2019-03-09T06:14:39.298Z,2.50
2019-03-09T06:17:07.577Z,3.40
2019-03-09T06:19:36.116Z,2.80
2019-03-09T06:22:04.459Z,3.92
2019-03-09T06:24:32.986Z,3.95
2019-03-09T06:27:01.265Z,2.77
2019-03-09T06:29:29.834Z,3.42
2019-03-09T06:32:33.447Z,2.72
2019-03-09T06:35:01.989Z,2.90
2019-03-09T06:37:32.201Z,3.15
2019-03-09T06:40:00.459Z,2.77
2019-03-09T06:42:34.511Z,3.10
2019-03-09T06:45:02.766Z,2.75
2019-03-09T06:47:31.043Z,2.70
2019-03-09T06:49:59.307Z,3.40
2019-03-09T06:52:27.591Z,2.92
2019-03-09T06:54:55.922Z,2.85
2019-03-09T06:57:24.204Z,2.77
2019-03-09T06:59:52.467Z,3.00
2019-03-09T07:02:21.014Z,3.37
2019-03-09T07:04:52.190Z,3.22
2019-03-09T07:07:20.736Z,3.77
2019-03-09T07:09:49.278Z,3.00
2019-03-09T07:12:17.639Z,3.00
2019-03-09T07:15:00.931Z,3.50
2019-03-09T07:17:29.781Z,3.00
2019-03-09T07:19:58.308Z,3.10
2019-03-09T07:22:26.976Z,3.02
2019-03-09T07:24:55.226Z,2.98
2019-03-09T07:27:26.504Z,2.92
2019-03-09T07:29:54.768Z,2.90
2019-03-09T07:32:23.033Z,2.50
2019-03-09T07:34:51.290Z,2.08
2019-03-09T07:37:19.567Z,2.50
2019-03-09T07:39:49.222Z,2.45
2019-03-09T07:42:17.516Z,2.47
2019-03-09T07:44:46.134Z,2.10
2019-03-09T07:47:14.672Z,1.80
2019-03-09T07:49:42.921Z,2.00
2019-03-09T07:52:29.430Z,2.25
2019-03-09T07:54:57.950Z,1.80
2019-03-09T07:57:26.216Z,1.82
2019-03-09T07:59:54.758Z,2.35
2019-03-09T08:02:23.290Z,3.60
2019-03-09T08:04:51.550Z,1.75
2019-03-09T08:07:19.835Z,2.40
2019-03-09T08:09:48.357Z,1.50
2019-03-09T08:12:16.892Z,1.75
2019-03-09T08:14:45.155Z,1.60
2019-03-09T08:17:13.423Z,1.40
2019-03-09T08:19:41.694Z,1.50
2019-03-09T08:22:10.242Z,1.60
2019-03-09T08:24:38.604Z,1.65
2019-03-09T08:27:07.227Z,1.57
2019-03-09T08:29:35.638Z,1.42
2019-03-09T08:32:04.226Z,1.98
2019-03-09T08:34:32.562Z,2.10
2019-03-09T08:37:00.893Z,1.40
2019-03-09T08:39:29.154Z,1.30
2019-03-09T08:41:57.403Z,1.42
2019-03-09T08:44:27.880Z,1.30
2019-03-09T08:46:56.202Z,1.40
2019-03-09T08:49:24.493Z,1.30
2019-03-09T08:51:54.371Z,1.35
2019-03-09T08:54:23.000Z,1.47
2019-03-09T08:56:51.293Z,1.50
2019-03-09T08:59:19.687Z,1.35
2019-03-09T09:01:48.012Z,1.42
2019-03-09T09:04:16.571Z,1.20
2019-03-09T09:06:44.839Z,1.82
2019-03-09T09:09:13.194Z,1.70
2019-03-09T09:11:41.452Z,1.52
2019-03-09T09:14:09.829Z,1.40
2019-03-09T09:16:38.097Z,1.57
2019-03-09T09:19:07.566Z,1.40
2019-03-09T09:21:35.828Z,1.10
2019-03-09T09:24:06.159Z,2.42
2019-03-09T09:26:34.436Z,1.32
2019-03-09T09:29:02.719Z,1.10
2019-03-09T09:31:30.990Z,1.10
2019-03-09T09:33:59.354Z,1.00
2019-03-09T09:36:28.728Z,1.40
2019-03-09T09:38:57.106Z,1.30
2019-03-09T09:41:25.523Z,1.10
2019-03-09T09:43:53.886Z,2.00
2019-03-09T09:46:22.505Z,1.60
2019-03-09T09:48:51.054Z,1.37
2019-03-09T09:51:19.318Z,1.15
2019-03-09T09:53:47.864Z,1.55
2019-03-09T09:56:16.123Z,1.32
2019-03-09T09:58:44.661Z,1.60
2019-03-09T10:01:12.924Z,1.55
2019-03-09T10:03:41.205Z,1.30
2019-03-09T10:06:09.464Z,1.50
2019-03-09T10:08:37.759Z,1.60
2019-03-09T10:11:06.013Z,1.10
2019-03-09T10:13:34.563Z,1.87
2019-03-09T10:16:05.978Z,1.35
2019-03-09T10:18:34.580Z,1.30
2019-03-09T10:21:02.861Z,1.50
2019-03-09T10:23:31.152Z,2.25
2019-03-09T10:25:59.491Z,3.20
2019-03-09T10:28:27.775Z,1.47
2019-03-09T10:30:56.038Z,1.90
2019-03-09T10:33:24.392Z,2.40
2019-03-09T10:35:52.741Z,1.65
2019-03-09T10:38:21.007Z,1.50
2019-03-09T10:40:49.291Z,1.85
2019-03-09T10:43:17.564Z,1.40
2019-03-09T10:45:45.839Z,1.40
2019-03-09T10:48:14.668Z,2.20
2019-03-09T10:50:42.951Z,1.70
2019-03-09T10:53:11.210Z,2.30
2019-03-09T10:55:42.637Z,1.80
2019-03-09T10:58:11.487Z,1.60
2019-03-09T11:00:42.673Z,1.85
2019-03-09T11:03:10.930Z,1.45
2019-03-09T11:05:39.464Z,2.00
2019-03-09T11:08:11.080Z,1.27
2019-03-09T11:10:39.619Z,2.83
2019-03-09T11:13:07.878Z,1.40
2019-03-09T11:15:37.816Z,2.20
2019-03-09T11:18:06.411Z,2.30
2019-03-09T11:20:34.971Z,2.37
2019-03-09T11:23:03.494Z,1.50
2019-03-09T11:25:31.782Z,1.30
2019-03-09T11:28:11.019Z,2.00
2019-03-09T11:30:39.617Z,1.50
2019-03-09T11:33:08.528Z,1.40
2019-03-09T11:35:36.938Z,1.62
2019-03-09T11:38:05.205Z,1.87
2019-03-09T11:40:33.488Z,2.00
2019-03-09T11:43:07.895Z,1.07
2019-03-09T11:45:36.435Z,1.10
2019-03-09T11:48:04.784Z,1.00
2019-03-09T11:50:33.332Z,1.07
2019-03-09T11:53:01.592Z,1.00
2019-03-09T11:55:30.200Z,1.00
2019-03-09T11:57:58.458Z,1.10
2019-03-09T12:00:34.179Z,1.00
2019-03-09T12:03:02.438Z,1.90
2019-03-09T12:05:33.769Z,1.00
2019-03-09T12:08:02.458Z,1.52
2019-03-09T12:10:30.758Z,2.00
2019-03-09T12:12:59.029Z,1.20
2019-03-09T12:15:27.578Z,1.07
2019-03-09T12:17:55.840Z,1.72
2019-03-09T12:20:26.078Z,1.00
2019-03-09T12:23:01.026Z,1.00
2019-03-09T12:25:24.630Z,1.20
2019-03-09T12:27:53.145Z,1.82
2019-03-09T12:30:21.707Z,1.35
2019-03-09T12:32:49.973Z,2.33
2019-03-09T12:35:18.315Z,1.80
2019-03-09T12:37:46.876Z,1.20
2019-03-09T12:40:19.449Z,1.57
2019-03-09T12:42:47.703Z,1.42
2019-03-09T12:45:16.435Z,1.70
2019-03-09T12:47:45.081Z,2.12
2019-03-09T12:50:21.367Z,1.60
2019-03-09T12:52:52.636Z,1.90
2019-03-09T12:55:20.909Z,1.55
2019-03-09T12:57:49.189Z,1.65
2019-03-09T13:00:21.887Z,1.50
2019-03-09T13:02:50.248Z,2.10
2019-03-09T13:05:19.015Z,1.80
2019-03-09T13:07:49.077Z,1.50
2019-03-09T13:10:17.332Z,1.37
2019-03-09T13:12:45.620Z,1.45
2019-03-09T13:15:15.613Z,1.22
2019-03-09T13:17:44.120Z,1.40
2019-03-09T13:20:16.573Z,1.50
2019-03-09T13:22:44.898Z,1.10
2019-03-09T13:25:15.055Z,1.17
2019-03-09T13:27:43.502Z,1.20
2019-03-09T13:30:19.590Z,0.90
2019-03-09T13:32:47.876Z,1.40
2019-03-09T13:35:16.129Z,1.10
2019-03-09T13:37:44.418Z,1.20
2019-03-09T13:40:14.278Z,1.10
2019-03-09T13:42:42.566Z,1.07
2019-03-09T13:45:15.695Z,0.98
2019-03-09T13:47:43.962Z,0.90
2019-03-09T13:50:13.729Z,1.10
2019-03-09T13:52:42.095Z,1.15
2019-03-09T13:55:11.103Z,1.00
2019-03-09T13:57:39.752Z,1.20
2019-03-09T14:00:13.875Z,2.40
2019-03-09T14:02:42.156Z,1.30
2019-03-09T14:05:11.305Z,1.77
2019-03-09T14:07:39.651Z,3.08
2019-03-09T14:10:14.964Z,3.80
2019-03-09T14:12:46.451Z,5.30
2019-03-09T14:15:17.722Z,4.10
2019-03-09T14:17:46.004Z,3.92
2019-03-09T14:20:15.306Z,3.00
2019-03-09T14:22:43.675Z,1.30
2019-03-09T14:25:15.271Z,1.55
2019-03-09T14:27:43.558Z,1.95
2019-03-09T14:30:16.184Z,1.60
2019-03-09T14:32:44.810Z,1.47
2019-03-09T14:35:13.149Z,1.57
2019-03-09T14:37:41.412Z,1.17
2019-03-09T14:40:15.068Z,1.10
2019-03-09T14:42:43.613Z,1.25
2019-03-09T14:45:17.171Z,1.30
2019-03-09T14:47:45.454Z,1.98
2019-03-09T14:50:14.050Z,1.40
2019-03-09T14:52:42.612Z,1.30
2019-03-09T14:55:13.070Z,1.35
2019-03-09T14:57:41.422Z,1.50
2019-03-09T15:00:25.765Z,1.30
2019-03-09T15:02:54.315Z,1.63
2019-03-09T15:05:24.466Z,1.27
2019-03-09T15:07:53.088Z,1.80
2019-03-09T15:10:21.354Z,1.90
2019-03-09T15:12:49.636Z,1.75
2019-03-09T15:15:19.236Z,3.77
2019-03-09T15:17:47.544Z,2.90
2019-03-09T15:20:16.848Z,7.83
2019-03-09T15:22:51.011Z,2.02
2019-03-09T15:25:19.715Z,1.70
2019-03-09T15:27:47.997Z,3.98
2019-03-09T15:30:17.399Z,2.20
2019-03-09T15:32:46.535Z,2.52
2019-03-09T15:35:16.903Z,5.45
2019-03-09T15:37:45.255Z,2.80
2019-03-09T15:40:17.744Z,2.33
2019-03-09T15:42:45.982Z,5.30
2019-03-09T15:45:19.272Z,2.85
2019-03-09T15:47:47.869Z,3.20
2019-03-09T15:50:18.482Z,1.82
2019-03-09T15:52:46.744Z,2.12
2019-03-09T15:55:15.876Z,2.00
2019-03-09T15:57:45.450Z,2.30
2019-03-09T16:00:18.734Z,2.20
2019-03-09T16:02:47.256Z,2.10
2019-03-09T16:05:15.792Z,1.52
2019-03-09T16:07:44.062Z,1.80
2019-03-09T16:10:22.447Z,2.02
2019-03-09T16:12:50.694Z,1.92
2019-03-09T16:15:18.965Z,1.37
2019-03-09T16:17:47.228Z,1.82
2019-03-09T16:20:24.373Z,1.70
2019-03-09T16:22:54.515Z,1.32
2019-03-09T16:25:22.800Z,1.47
2019-03-09T16:27:51.327Z,1.25
2019-03-09T16:30:24.034Z,1.55
2019-03-09T16:32:52.291Z,1.57
2019-03-09T16:35:20.574Z,1.30
2019-03-09T16:37:52.237Z,1.32
2019-03-09T16:40:22.021Z,1.40
2019-03-09T16:42:50.558Z,9.78
2019-03-09T16:45:19.087Z,2.92
2019-03-09T16:47:47.503Z,1.42
2019-03-09T16:50:19.262Z,1.40
2019-03-09T16:52:47.598Z,1.42
2019-03-09T16:55:15.951Z,1.40
2019-03-09T16:57:44.209Z,1.45
2019-03-09T17:00:18.723Z,1.90
2019-03-09T17:02:48.958Z,1.30
2019-03-09T17:05:17.559Z,1.30
2019-03-09T17:07:45.882Z,1.57
2019-03-09T17:10:15.570Z,1.30
2019-03-09T17:12:43.859Z,1.65
2019-03-09T17:15:15.210Z,1.60
2019-03-09T17:17:43.553Z,1.50
2019-03-09T17:20:13.864Z,1.37
2019-03-09T17:22:42.121Z,1.52
2019-03-09T17:25:10.959Z,1.55
2019-03-09T17:27:39.221Z,1.05
2019-03-09T17:30:21.171Z,1.27
2019-03-09T17:32:49.448Z,3.08
2019-03-09T17:35:17.737Z,2.87
2019-03-09T17:37:45.993Z,2.35
2019-03-09T17:40:16.636Z,1.30
2019-03-09T17:42:44.974Z,1.55
2019-03-09T17:45:24.553Z,1.60
2019-03-09T17:47:53.144Z,1.40
2019-03-09T17:50:21.493Z,1.85
2019-03-09T17:52:49.758Z,2.00
2019-03-09T17:55:18.039Z,1.20
2019-03-09T17:57:46.579Z,1.20
2019-03-09T18:00:26.252Z,1.20
2019-03-09T18:02:54.796Z,1.45
2019-03-09T18:05:44.697Z,1.60
2019-03-09T18:08:13.934Z,1.30
2019-03-09T18:10:48.211Z,1.10
2019-03-09T18:13:16.515Z,2.27
2019-03-09T18:15:44.842Z,2.17
2019-03-09T18:18:13.099Z,2.17
2019-03-09T18:20:41.382Z,5.15
2019-03-09T18:23:10.991Z,8.98
2019-03-09T18:25:39.923Z,5.50
2019-03-09T18:28:08.165Z,4.12
2019-03-09T18:30:36.448Z,3.83
2019-03-09T18:33:04.966Z,3.27
2019-03-09T18:35:34.470Z,2.80
2019-03-09T18:38:02.738Z,2.55
2019-03-09T18:40:31.093Z,2.80
2019-03-09T18:42:59.680Z,2.35
2019-03-09T18:45:27.961Z,1.77
2019-03-09T18:47:56.218Z,1.80
2019-03-09T18:50:24.525Z,1.50
2019-03-09T18:52:52.788Z,1.20
2019-03-09T18:55:21.337Z,1.40
2019-03-09T18:57:49.987Z,1.45
2019-03-09T19:00:22.063Z,1.50
2019-03-09T19:02:50.380Z,2.25
2019-03-09T19:05:18.960Z,2.95
2019-03-09T19:07:47.573Z,2.08
2019-03-09T19:10:25.397Z,2.30
2019-03-09T19:12:53.689Z,1.90
2019-03-09T19:15:22.212Z,2.45
2019-03-09T19:17:50.511Z,1.52
2019-03-09T19:20:22.228Z,1.60
2019-03-09T19:22:50.511Z,1.45
2019-03-09T19:25:21.630Z,1.67
2019-03-09T19:27:49.910Z,2.10
2019-03-09T19:30:19.518Z,1.77
2019-03-09T19:32:47.804Z,1.95
2019-03-09T19:35:16.069Z,2.25
2019-03-09T19:37:44.628Z,1.92
2019-03-09T19:40:18.135Z,2.10
2019-03-09T19:42:47.442Z,2.70
2019-03-09T19:45:20.108Z,2.37
2019-03-09T19:47:48.375Z,2.10
2019-03-09T19:50:20.536Z,2.67
2019-03-09T19:52:49.095Z,4.45
2019-03-09T19:55:17.361Z,3.40
2019-03-09T19:57:45.957Z,1.92
2019-03-09T20:00:18.485Z,1.92
2019-03-09T20:02:46.754Z,2.00
2019-03-09T20:05:15.190Z,2.30
2019-03-09T20:07:43.537Z,2.50
2019-03-09T20:10:20.038Z,2.47
2019-03-09T20:12:49.739Z,2.70
2019-03-09T20:15:19.023Z,3.37
2019-03-09T20:17:47.304Z,2.25
2019-03-09T20:20:17.483Z,2.52
2019-03-09T20:22:46.026Z,2.20
2019-03-09T20:25:17.220Z,2.22
2019-03-09T20:27:45.494Z,2.25
2019-03-09T20:30:18.331Z,2.55
2019-03-09T20:32:46.622Z,2.20
2019-03-09T20:35:14.879Z,2.30
2019-03-09T20:37:43.153Z,2.00
2019-03-09T20:40:16.846Z,2.12
2019-03-09T20:42:45.447Z,2.00
2019-03-09T20:45:23.064Z,2.40
2019-03-09T20:47:51.365Z,2.08
2019-03-09T20:50:23.754Z,2.15
2019-03-09T20:52:52.048Z,2.90
2019-03-09T20:55:20.406Z,2.40
2019-03-09T20:57:48.720Z,2.33
2019-03-09T21:00:23.211Z,3.77
2019-03-09T21:02:51.519Z,3.00
2019-03-09T21:05:19.856Z,3.47
2019-03-09T21:07:48.151Z,2.08
2019-03-09T21:10:20.660Z,2.30
2019-03-09T21:13:02.083Z,2.10
2019-03-09T21:15:30.435Z,1.85
2019-03-09T21:17:59.027Z,1.87
2019-03-09T21:20:27.309Z,1.50
2019-03-09T21:22:58.424Z,2.27
2019-03-09T21:25:27.000Z,2.12
2019-03-09T21:27:55.344Z,1.70
2019-03-09T21:30:23.636Z,1.40
2019-03-09T21:32:51.990Z,1.40
2019-03-09T21:35:20.354Z,1.80
2019-03-09T21:37:48.657Z,1.70
2019-03-09T21:40:16.938Z,1.50
2019-03-09T21:42:45.523Z,1.30
2019-03-09T21:45:14.348Z,1.45
2019-03-09T21:47:46.049Z,1.30
2019-03-09T21:50:17.581Z,1.30
2019-03-09T21:52:45.959Z,1.40
2019-03-09T21:55:20.082Z,1.55
2019-03-09T21:57:48.844Z,1.50
2019-03-09T22:00:21.982Z,1.20
2019-03-09T22:02:50.692Z,1.30
2019-03-09T22:05:19.481Z,1.22
2019-03-09T22:07:47.762Z,1.55
2019-03-09T22:10:16.401Z,1.47
2019-03-09T22:12:44.684Z,6.42
2019-03-09T22:15:15.487Z,1.50
2019-03-09T22:17:44.001Z,1.52
2019-03-09T22:20:13.400Z,1.35
2019-03-09T22:22:41.799Z,1.20
2019-03-09T22:25:11.695Z,1.30
2019-03-09T22:27:40.284Z,1.27
2019-03-09T22:30:19.219Z,1.17
2019-03-09T22:32:47.477Z,1.20
2019-03-09T22:35:15.761Z,1.15
2019-03-09T22:37:44.031Z,1.55
2019-03-09T22:40:21.529Z,1.32
2019-03-09T22:42:49.789Z,1.45
2019-03-09T22:45:20.002Z,1.42
2019-03-09T22:47:48.525Z,1.15
2019-03-09T22:50:21.353Z,1.55
2019-03-09T22:52:49.880Z,1.30
2019-03-09T22:55:18.151Z,1.67
2019-03-09T22:57:46.415Z,1.50
2019-03-09T23:00:25.457Z,1.40
2019-03-09T23:02:54.000Z,1.40
2019-03-09T23:05:22.277Z,1.60
2019-03-09T23:07:50.554Z,1.80
2019-03-09T23:10:26.186Z,2.00
2019-03-09T23:12:56.072Z,2.60
2019-03-09T23:15:24.351Z,2.08
2019-03-09T23:17:52.600Z,2.80
2019-03-09T23:20:20.943Z,3.52
2019-03-09T23:22:49.197Z,2.17
2019-03-09T23:25:17.480Z,3.25
2019-03-09T23:27:47.409Z,1.95
2019-03-09T23:30:17.347Z,3.10
2019-03-09T23:32:45.603Z,2.92
2019-03-09T23:35:13.891Z,2.80
2019-03-09T23:37:42.146Z,2.42
2019-03-09T23:40:15.874Z,3.00
2019-03-09T23:42:44.138Z,2.60
2019-03-09T23:45:14.923Z,2.58
2019-03-09T23:47:43.354Z,3.50
2019-03-09T23:50:13.774Z,2.60
2019-03-09T23:52:42.022Z,1.62
2019-03-09T23:55:21.457Z,1.50
2019-03-09T23:57:41.147Z,1.50
